createdAt,value
2022-12-17T00:01:41.302Z,-0.20
2022-12-17T00:04:47.226Z,-0.20
2022-12-17T00:07:53.497Z,-0.20
2022-12-17T00:11:01.275Z,-0.20
2022-12-17T00:14:07.634Z,-0.20
2022-12-17T00:17:13.844Z,-0.10
2022-12-17T00:20:20.171Z,-0.10
2022-12-17T00:23:27.038Z,-0.20
2022-12-17T00:26:33.151Z,-0.20
2022-12-17T00:29:39.109Z,-0.20
2022-12-17T00:32:45.147Z,-0.20
2022-12-17T00:35:51.061Z,-0.20
2022-12-17T00:38:58.406Z,-0.20
2022-12-17T00:42:04.762Z,-0.20
2022-12-17T00:45:10.789Z,-0.20
2022-12-17T00:48:17.182Z,-0.20
2022-12-17T00:51:23.201Z,-0.20
2022-12-17T00:54:30.660Z,-0.20
2022-12-17T00:57:37.000Z,-0.20
2022-12-17T01:00:43.294Z,-0.20
2022-12-17T01:03:49.722Z,-0.30
2022-12-17T01:06:55.891Z,-0.30
2022-12-17T01:10:02.763Z,-0.20
2022-12-17T01:13:09.446Z,-0.20
2022-12-17T01:16:29.310Z,-0.20
2022-12-17T01:19:35.677Z,-0.20
2022-12-17T01:22:41.621Z,-0.30
2022-12-17T01:25:47.706Z,-0.30
2022-12-17T01:28:53.776Z,-0.20
2022-12-17T01:32:00.102Z,-0.20
2022-12-17T01:35:06.226Z,-0.20
2022-12-17T01:38:12.591Z,-0.20
2022-12-17T01:41:18.796Z,-0.20
2022-12-17T01:45:02.583Z,-0.20
2022-12-17T01:48:35.973Z,-0.20
2022-12-17T01:51:44.476Z,-0.20
2022-12-17T01:54:50.624Z,-0.20
2022-12-17T01:57:57.900Z,-0.20
2022-12-17T02:01:04.020Z,-0.20
2022-12-17T02:04:10.215Z,-0.20
2022-12-17T02:07:50.648Z,-0.20
2022-12-17T02:11:21.916Z,-0.20
2022-12-17T02:14:49.127Z,-0.20
2022-12-17T02:18:12.610Z,-0.20
2022-12-17T02:21:19.651Z,-0.20
2022-12-17T02:24:55.163Z,-0.20
2022-12-17T02:28:02.375Z,-0.20
2022-12-17T02:31:10.026Z,-0.20
2022-12-17T02:34:16.687Z,-0.20
2022-12-17T02:37:22.971Z,-0.10
2022-12-17T02:40:29.824Z,-0.20
2022-12-17T02:43:38.215Z,-0.20
2022-12-17T02:46:44.956Z,-0.20
2022-12-17T02:49:51.206Z,-0.20
2022-12-17T02:53:04.001Z,-0.20
2022-12-17T02:56:10.371Z,-0.20
2022-12-17T02:59:16.651Z,-0.20
2022-12-17T03:02:23.100Z,-0.20
2022-12-17T03:05:44.956Z,-0.20
2022-12-17T03:08:53.291Z,-0.20
2022-12-17T03:11:59.467Z,-0.20
2022-12-17T03:15:05.796Z,-0.20
2022-12-17T03:18:13.295Z,-0.20
2022-12-17T03:21:19.380Z,-0.20
2022-12-17T03:24:25.980Z,-0.10
2022-12-17T03:27:33.231Z,-0.10
2022-12-17T03:30:40.157Z,-0.10
2022-12-17T03:33:48.712Z,-0.10
2022-12-17T03:36:54.869Z,-0.10
2022-12-17T03:40:01.021Z,-0.10
2022-12-17T03:43:07.284Z,-0.10
2022-12-17T03:46:14.045Z,-0.10
2022-12-17T03:49:20.366Z,-0.10
2022-12-17T03:52:26.621Z,-0.10
2022-12-17T03:55:32.757Z,-0.10
2022-12-17T03:58:39.110Z,-0.10
2022-12-17T04:01:45.624Z,-0.10
2022-12-17T04:04:52.085Z,-0.10
2022-12-17T04:07:58.352Z,-0.10
2022-12-17T04:11:04.608Z,-0.10
2022-12-17T04:14:10.668Z,-0.10
2022-12-17T04:17:16.897Z,0.00
2022-12-17T04:20:28.611Z,-0.10
2022-12-17T04:23:34.890Z,0.00
2022-12-17T04:26:41.410Z,-0.10
2022-12-17T04:29:47.578Z,-0.10
2022-12-17T04:32:53.796Z,-0.10
2022-12-17T04:35:59.742Z,-0.10
2022-12-17T04:39:05.951Z,0.00
2022-12-17T04:42:12.221Z,0.00
2022-12-17T04:45:18.496Z,-0.10
2022-12-17T04:48:27.716Z,-0.10
2022-12-17T04:51:33.691Z,0.00
2022-12-17T04:54:39.986Z,-0.10
2022-12-17T04:57:46.266Z,-0.10
2022-12-17T05:00:52.431Z,-0.10
2022-12-17T05:03:59.536Z,-0.10
2022-12-17T05:07:05.748Z,-0.10
2022-12-17T05:10:12.039Z,-0.10
2022-12-17T05:13:20.553Z,-0.20
2022-12-17T05:16:28.033Z,-0.20
2022-12-17T05:19:34.290Z,-0.20
2022-12-17T05:22:40.583Z,-0.20
2022-12-17T05:25:46.882Z,-0.20
2022-12-17T05:28:53.191Z,-0.20
2022-12-17T05:31:59.222Z,-0.20
2022-12-17T05:35:05.457Z,-0.20
2022-12-17T05:38:11.771Z,-0.20
2022-12-17T05:41:19.476Z,-0.20
2022-12-17T05:44:25.740Z,-0.20
2022-12-17T05:47:32.091Z,-0.20
2022-12-17T05:50:38.104Z,-0.20
2022-12-17T05:53:44.415Z,-0.20
2022-12-17T05:56:50.735Z,-0.20
2022-12-17T05:59:57.061Z,-0.20
2022-12-17T06:03:03.543Z,-0.30
2022-12-17T06:06:14.517Z,-0.30
2022-12-17T06:09:21.030Z,-0.30
2022-12-17T06:12:27.157Z,-0.30
2022-12-17T06:15:33.246Z,-0.30
2022-12-17T06:18:39.496Z,-0.30
2022-12-17T06:21:45.782Z,-0.30
2022-12-17T06:24:51.850Z,-0.30
2022-12-17T06:27:57.755Z,-0.30
2022-12-17T06:31:10.787Z,-0.30
2022-12-17T06:34:17.026Z,-0.30
2022-12-17T06:37:23.462Z,-0.40
2022-12-17T06:40:30.250Z,-0.40
2022-12-17T06:43:36.680Z,-0.30
2022-12-17T06:47:03.634Z,-0.30
2022-12-17T06:50:09.436Z,-0.30
2022-12-17T06:53:24.591Z,-0.30
2022-12-17T06:56:30.943Z,-0.30
2022-12-17T06:59:37.341Z,-0.30
2022-12-17T07:02:43.837Z,-0.30
2022-12-17T07:05:50.256Z,-0.30
2022-12-17T07:08:56.585Z,-0.30
2022-12-17T07:12:03.695Z,-0.30
2022-12-17T07:15:10.065Z,-0.40
2022-12-17T07:18:19.863Z,-0.30
2022-12-17T07:21:26.200Z,-0.40
2022-12-17T07:24:32.690Z,-0.30
2022-12-17T07:27:38.846Z,-0.40
2022-12-17T07:30:44.851Z,-0.30
2022-12-17T07:33:50.786Z,-0.30
2022-12-17T07:36:56.978Z,-0.30
2022-12-17T07:40:03.247Z,-0.30
2022-12-17T07:43:09.415Z,-0.30
2022-12-17T07:46:16.093Z,-0.30
2022-12-17T07:49:25.670Z,-0.20
2022-12-17T07:52:32.442Z,-0.30
2022-12-17T07:55:38.591Z,-0.30
2022-12-17T07:58:44.647Z,-0.30
2022-12-17T08:01:51.574Z,-0.30
2022-12-17T08:04:57.966Z,-0.30
2022-12-17T08:08:04.332Z,-0.30
2022-12-17T08:11:10.580Z,-0.30
2022-12-17T08:14:17.240Z,-0.40
2022-12-17T08:17:23.182Z,-0.30
2022-12-17T08:20:30.091Z,-0.30
2022-12-17T08:23:36.245Z,-0.30
2022-12-17T08:26:47.595Z,-0.30
2022-12-17T08:29:54.599Z,-0.30
2022-12-17T08:33:00.804Z,-0.30
2022-12-17T08:36:15.615Z,-0.20
2022-12-17T08:39:22.021Z,-0.20
2022-12-17T08:42:28.411Z,-0.20
2022-12-17T08:45:34.748Z,-0.10
2022-12-17T08:48:41.062Z,-0.10
2022-12-17T08:51:47.535Z,-0.10
2022-12-17T08:54:53.856Z,0.00
2022-12-17T08:58:00.111Z,0.00
2022-12-17T09:01:06.155Z,0.00
2022-12-17T09:04:12.242Z,0.10
2022-12-17T09:07:18.341Z,0.20
2022-12-17T09:10:25.016Z,0.30
2022-12-17T09:13:31.177Z,0.30
2022-12-17T09:16:39.250Z,0.40
2022-12-17T09:19:45.377Z,0.40
2022-12-17T09:22:51.776Z,0.40
2022-12-17T09:25:58.338Z,0.40
2022-12-17T09:29:07.528Z,0.40
2022-12-17T09:32:13.868Z,0.40
2022-12-17T09:35:20.267Z,0.40
2022-12-17T09:38:27.735Z,0.50
2022-12-17T09:42:11.351Z,0.40
2022-12-17T09:45:34.651Z,0.60
2022-12-17T09:49:16.052Z,0.60
2022-12-17T09:52:39.917Z,0.70
2022-12-17T09:56:02.285Z,0.70
2022-12-17T09:59:08.506Z,0.70
2022-12-17T10:02:14.948Z,0.70
2022-12-17T10:05:33.691Z,1.00
2022-12-17T10:08:41.061Z,1.30
2022-12-17T10:11:49.440Z,1.30
2022-12-17T10:14:56.126Z,1.30
2022-12-17T10:18:13.125Z,1.40
2022-12-17T10:21:25.388Z,1.40
2022-12-17T10:24:31.661Z,1.40
2022-12-17T10:27:39.673Z,1.10
2022-12-17T10:30:50.234Z,0.70
2022-12-17T10:33:58.890Z,0.60
2022-12-17T10:37:11.382Z,0.60
2022-12-17T10:40:20.747Z,0.80
2022-12-17T10:43:52.073Z,1.00
2022-12-17T10:46:58.111Z,1.40
2022-12-17T10:50:04.196Z,1.60
2022-12-17T10:53:11.031Z,1.70
2022-12-17T10:56:17.481Z,1.60
2022-12-17T10:59:42.061Z,1.50
2022-12-17T11:02:50.573Z,1.30
2022-12-17T11:06:01.136Z,1.40
2022-12-17T11:09:07.240Z,1.40
2022-12-17T11:12:13.690Z,1.40
2022-12-17T11:15:43.201Z,1.40
2022-12-17T11:19:03.226Z,1.40
2022-12-17T11:22:22.169Z,1.30
2022-12-17T11:26:19.410Z,1.20
2022-12-17T11:29:32.894Z,1.20
2022-12-17T11:33:13.838Z,1.20
2022-12-17T11:37:04.051Z,1.20
2022-12-17T11:40:37.401Z,1.30
2022-12-17T11:44:23.621Z,1.30
2022-12-17T11:48:01.255Z,1.20
2022-12-17T11:51:20.858Z,1.20
2022-12-17T11:54:47.241Z,1.00
2022-12-17T11:58:22.736Z,1.00
2022-12-17T12:01:46.521Z,1.00
2022-12-17T12:05:16.569Z,1.10
2022-12-17T12:08:47.780Z,1.20
2022-12-17T12:12:15.665Z,1.10
2022-12-17T12:15:44.684Z,1.20
2022-12-17T12:19:09.931Z,1.30
2022-12-17T12:23:01.802Z,1.40
2022-12-17T12:26:53.556Z,1.30
2022-12-17T12:30:31.044Z,1.30
2022-12-17T12:34:08.728Z,1.30
2022-12-17T12:37:19.553Z,1.30
2022-12-17T12:41:01.217Z,1.30
2022-12-17T12:44:17.876Z,1.10
2022-12-17T12:47:36.576Z,0.80
2022-12-17T12:51:19.665Z,0.70
2022-12-17T12:55:06.696Z,0.50
2022-12-17T12:58:24.689Z,0.30
2022-12-17T13:01:31.751Z,0.30
2022-12-17T13:05:02.347Z,0.20
2022-12-17T13:07:49.910Z,0.20
2022-12-17T13:10:37.906Z,0.20
2022-12-17T13:13:39.950Z,0.20
2022-12-17T13:16:45.303Z,0.00
2022-12-17T13:19:38.782Z,0.00
2022-12-17T13:22:33.713Z,0.00
2022-12-17T13:25:23.874Z,0.00
2022-12-17T13:28:31.621Z,0.00
2022-12-17T13:31:27.235Z,0.00
2022-12-17T13:34:38.356Z,0.10
2022-12-17T13:38:15.153Z,0.10
2022-12-17T13:41:10.651Z,0.10
2022-12-17T13:44:04.802Z,0.10
2022-12-17T13:46:54.577Z,0.20
2022-12-17T13:50:24.428Z,0.10
2022-12-17T13:53:13.247Z,0.00
2022-12-17T13:56:02.465Z,0.10
2022-12-17T13:58:56.259Z,0.00
2022-12-17T14:01:54.243Z,0.00
2022-12-17T14:04:42.151Z,0.00
2022-12-17T14:07:33.077Z,-0.10
2022-12-17T14:10:21.660Z,-0.10
2022-12-17T14:13:16.158Z,-0.20
2022-12-17T14:16:03.792Z,-0.20
2022-12-17T14:19:00.872Z,-0.20
2022-12-17T14:21:48.872Z,-0.20
2022-12-17T14:24:36.669Z,-0.20
2022-12-17T14:27:32.311Z,-0.20
2022-12-17T14:30:33.457Z,-0.20
2022-12-17T14:33:30.050Z,-0.30
2022-12-17T14:36:26.226Z,-0.30
2022-12-17T14:39:32.468Z,-0.30
2022-12-17T14:42:26.220Z,-0.30
2022-12-17T14:45:16.691Z,-0.30
2022-12-17T14:48:07.195Z,-0.40
2022-12-17T14:50:57.788Z,-0.40
2022-12-17T14:53:45.272Z,-0.40
2022-12-17T14:56:32.851Z,-0.50
2022-12-17T14:59:24.177Z,-0.50
2022-12-17T15:02:24.073Z,-0.60
2022-12-17T15:05:17.104Z,-0.60
2022-12-17T15:08:05.820Z,-0.70
2022-12-17T15:10:53.381Z,-0.70
2022-12-17T15:13:41.411Z,-0.70
2022-12-17T15:16:29.152Z,-0.70
2022-12-17T15:19:17.116Z,-0.80
2022-12-17T15:22:05.347Z,-0.80
2022-12-17T15:24:52.781Z,-0.80
2022-12-17T15:27:40.721Z,-0.90
2022-12-17T15:30:28.241Z,-0.90
2022-12-17T15:33:16.332Z,-0.90
2022-12-17T15:36:04.491Z,-0.90
2022-12-17T15:38:52.093Z,-1.00
2022-12-17T15:41:59.871Z,-1.00
2022-12-17T15:44:47.389Z,-1.00
2022-12-17T15:47:34.977Z,-1.10
2022-12-17T15:50:22.601Z,-1.10
2022-12-17T15:53:10.986Z,-1.10
2022-12-17T15:56:03.861Z,-1.10
2022-12-17T15:58:52.227Z,-1.10
2022-12-17T16:01:40.656Z,-1.20
2022-12-17T16:04:28.672Z,-1.20
2022-12-17T16:07:16.616Z,-1.20
2022-12-17T16:10:06.620Z,-1.20
2022-12-17T16:12:54.206Z,-1.20
2022-12-17T16:15:41.759Z,-1.20
2022-12-17T16:18:29.445Z,-1.30
2022-12-17T16:21:17.504Z,-1.30
2022-12-17T16:24:05.701Z,-1.40
2022-12-17T16:26:53.302Z,-1.40
2022-12-17T16:29:40.858Z,-1.50
2022-12-17T16:32:32.963Z,-1.60
2022-12-17T16:35:24.296Z,-1.60
2022-12-17T16:38:11.836Z,-1.60
2022-12-17T16:41:02.284Z,-1.60
2022-12-17T16:43:50.330Z,-1.60
2022-12-17T16:46:41.562Z,-1.60
2022-12-17T16:49:29.197Z,-1.60
2022-12-17T16:52:16.688Z,-1.60
2022-12-17T16:55:04.578Z,-1.60
2022-12-17T16:57:52.064Z,-1.60
2022-12-17T17:00:40.565Z,-1.60
2022-12-17T17:03:28.289Z,-1.70
2022-12-17T17:06:18.148Z,-1.70
2022-12-17T17:09:06.140Z,-1.70
2022-12-17T17:11:58.822Z,-1.70
2022-12-17T17:14:46.400Z,-1.60
2022-12-17T17:17:53.955Z,-1.60
2022-12-17T17:20:41.641Z,-1.60
2022-12-17T17:23:29.185Z,-1.60
2022-12-17T17:26:17.222Z,-1.60
2022-12-17T17:29:06.515Z,-1.50
2022-12-17T17:32:10.700Z,-1.50
2022-12-17T17:34:59.187Z,-1.60
2022-12-17T17:37:46.891Z,-1.60
2022-12-17T17:40:34.376Z,-1.60
2022-12-17T17:43:22.267Z,-1.60
2022-12-17T17:46:18.882Z,-1.60
2022-12-17T17:49:09.071Z,-1.60
2022-12-17T17:52:12.461Z,-1.60
2022-12-17T17:55:00.398Z,-1.60
2022-12-17T17:57:47.957Z,-1.70
2022-12-17T18:00:37.296Z,-1.70
2022-12-17T18:03:24.967Z,-1.70
2022-12-17T18:06:14.385Z,-1.70
2022-12-17T18:09:01.882Z,-1.80
2022-12-17T18:11:49.382Z,-1.80
2022-12-17T18:14:41.731Z,-1.80
2022-12-17T18:17:29.826Z,-1.80
2022-12-17T18:20:18.144Z,-1.80
2022-12-17T18:23:05.568Z,-1.80
2022-12-17T18:25:53.118Z,-1.70
2022-12-17T18:28:42.511Z,-1.80
2022-12-17T18:31:31.778Z,-1.80
2022-12-17T18:34:23.613Z,-1.90
2022-12-17T18:37:11.251Z,-1.90
2022-12-17T18:39:58.739Z,-1.90
2022-12-17T18:43:04.781Z,-2.00
2022-12-17T18:45:53.231Z,-2.00
2022-12-17T18:48:40.907Z,-2.00
2022-12-17T18:51:29.484Z,-2.10
2022-12-17T18:54:27.144Z,-2.00
2022-12-17T18:57:14.711Z,-2.00
2022-12-17T19:00:02.303Z,-2.10
2022-12-17T19:02:49.874Z,-2.10
2022-12-17T19:05:45.248Z,-2.10
2022-12-17T19:08:35.614Z,-2.10
2022-12-17T19:11:24.609Z,-2.10
2022-12-17T19:14:12.621Z,-2.10
2022-12-17T19:17:01.286Z,-2.10
2022-12-17T19:19:48.945Z,-2.10
2022-12-17T19:22:36.497Z,-2.20
2022-12-17T19:25:24.071Z,-2.20
2022-12-17T19:28:11.686Z,-2.40
2022-12-17T19:30:59.708Z,-2.50
2022-12-17T19:33:48.563Z,-2.60
2022-12-17T19:36:38.278Z,-2.70
2022-12-17T19:39:25.841Z,-2.90
2022-12-17T19:42:24.929Z,-3.10
2022-12-17T19:45:12.711Z,-3.30
2022-12-17T19:48:00.271Z,-3.50
2022-12-17T19:50:57.280Z,-3.60
2022-12-17T19:53:46.127Z,-3.80
2022-12-17T19:56:34.121Z,-4.00
2022-12-17T19:59:21.627Z,-4.20
2022-12-17T20:02:10.249Z,-4.40
2022-12-17T20:04:57.932Z,-4.70
2022-12-17T20:07:45.426Z,-4.90
2022-12-17T20:10:33.797Z,-5.10
2022-12-17T20:13:21.392Z,-5.20
2022-12-17T20:16:09.090Z,-5.50
2022-12-17T20:18:59.657Z,-5.70
2022-12-17T20:21:48.005Z,-5.90
2022-12-17T20:24:37.423Z,-6.10
2022-12-17T20:27:25.019Z,-6.20
2022-12-17T20:30:12.837Z,-6.20
2022-12-17T20:33:00.366Z,-6.30
2022-12-17T20:35:47.826Z,-6.40
2022-12-17T20:38:36.843Z,-6.50
2022-12-17T20:41:28.665Z,-6.60
2022-12-17T20:44:16.228Z,-6.70
2022-12-17T20:47:03.943Z,-6.80
2022-12-17T20:49:51.536Z,-7.00
2022-12-17T20:52:39.031Z,-7.00
2022-12-17T20:55:30.927Z,-7.00
2022-12-17T20:58:19.033Z,-7.20
2022-12-17T21:01:18.832Z,-7.20
2022-12-17T21:04:07.632Z,-7.30
2022-12-17T21:06:55.348Z,-7.40
2022-12-17T21:09:42.856Z,-7.50
2022-12-17T21:12:50.322Z,-7.50
2022-12-17T21:15:37.840Z,-7.60
2022-12-17T21:18:26.641Z,-7.60
2022-12-17T21:21:19.004Z,-7.60
2022-12-17T21:24:08.474Z,-7.70
2022-12-17T21:26:55.957Z,-7.70
2022-12-17T21:29:43.520Z,-7.70
2022-12-17T21:32:33.838Z,-7.70
2022-12-17T21:35:21.587Z,-7.70
2022-12-17T21:38:09.292Z,-7.80
2022-12-17T21:41:08.423Z,-7.80
2022-12-17T21:44:00.296Z,-7.90
2022-12-17T21:46:50.010Z,-8.10
2022-12-17T21:49:38.008Z,-8.20
2022-12-17T21:52:26.362Z,-8.20
2022-12-17T21:55:13.936Z,-8.30
2022-12-17T21:58:01.551Z,-8.40
2022-12-17T22:00:49.091Z,-8.50
2022-12-17T22:03:37.098Z,-8.60
2022-12-17T22:06:30.858Z,-8.60
2022-12-17T22:09:25.913Z,-8.50
2022-12-17T22:12:49.601Z,-8.70
2022-12-17T22:15:47.656Z,-8.70
2022-12-17T22:18:36.237Z,-8.80
2022-12-17T22:21:24.406Z,-8.90
2022-12-17T22:24:19.071Z,-8.90
2022-12-17T22:27:09.437Z,-8.90
2022-12-17T22:30:16.097Z,-8.90
2022-12-17T22:33:17.438Z,-8.80
2022-12-17T22:38:05.647Z,-8.70
2022-12-17T22:43:37.355Z,-8.60
2022-12-17T22:44:37.198Z,-8.40
2022-12-17T22:46:05.644Z,-8.30
2022-12-17T22:48:53.602Z,-8.10
2022-12-17T22:51:43.170Z,-8.10
2022-12-17T22:54:31.398Z,-8.00
2022-12-17T22:57:36.991Z,-8.00
2022-12-17T23:00:32.250Z,-7.90
2022-12-17T23:03:19.874Z,-7.80
2022-12-17T23:06:16.806Z,-7.70
2022-12-17T23:09:04.352Z,-7.60
2022-12-17T23:11:51.951Z,-7.60
2022-12-17T23:14:39.467Z,-7.50
2022-12-17T23:17:26.966Z,-7.40
2022-12-17T23:20:15.846Z,-7.30
2022-12-17T23:23:03.480Z,-7.20
2022-12-17T23:25:50.962Z,-7.10
2022-12-17T23:28:40.542Z,-7.00
2022-12-17T23:31:34.092Z,-6.80
2022-12-17T23:34:21.865Z,-6.80
2022-12-17T23:37:09.942Z,-6.70
2022-12-17T23:39:57.553Z,-6.70
2022-12-17T23:42:45.107Z,-6.60
2022-12-17T23:45:32.601Z,-6.60
2022-12-17T23:48:20.106Z,-6.50
2022-12-17T23:51:09.924Z,-6.40
2022-12-17T23:53:59.667Z,-6.40
2022-12-17T23:56:47.188Z,-6.30
2022-12-17T23:59:34.713Z,-6.20
